Time;durP1;ratioP1;P1;durP2;ratioP2;P2;SDS_P1;SDS_P2;PMS_P1;PMS_P2;Temp;Humidity;BMP_temperature;BMP_pressure;BME280_temperature;BME280_humidity;BME280_pressure;Samples;Min_cycle;Max_cycle;Signal;HPM_P1;HPM_P2
2021/12/23 00:02:04;;;;;;;53.20;16.07;;;;;;;-5.64;88.43;94156.38;4841696;29;20050;-60
2021/12/23 00:04:31;;;;;;;48.55;16.05;;;;;;;-5.58;87.52;94157.03;4842123;29;20057;-60
2021/12/23 00:06:58;;;;;;;49.95;16.15;;;;;;;-5.63;86.62;94155.28;4840131;29;20056;-60
2021/12/23 00:09:36;;;;;;;46.70;15.45;;;;;;;-5.58;86.56;94155.16;4838944;29;20050;-60
2021/12/23 00:12:03;;;;;;;47.65;15.90;;;;;;;-5.69;87.46;94151.97;4823627;29;20119;-60
2021/12/23 00:14:31;;;;;;;47.43;14.83;;;;;;;-5.83;87.87;94151.25;4823754;29;20062;-60
2021/12/23 00:17:19;;;;;;;49.33;15.38;;;;;;;-5.96;88.35;94146.78;4822976;29;20062;-59
2021/12/23 00:25:17;;;;;;;53.25;16.75;;;;;;;-6.22;89.17;94136.72;4822994;29;20062;-60
2021/12/23 00:27:43;;;;;;;50.87;15.67;;;;;;;-6.29;89.08;94137.16;4823469;29;20050;-60
2021/12/23 00:30:10;;;;;;;49.17;15.30;;;;;;;-6.41;89.79;94139.59;4822702;29;20050;-60
2021/12/23 00:32:38;;;;;;;49.75;17.13;;;;;;;-6.58;90.49;94142.91;4841201;29;20072;-59
2021/12/23 00:35:05;;;;;;;55.63;17.35;;;;;;;-6.56;90.51;94140.75;4840940;29;20052;-59
2021/12/23 00:37:39;;;;;;;51.78;16.95;;;;;;;-6.53;90.31;94132.13;4841677;29;20433;-60
2021/12/23 00:40:09;;;;;;;51.83;16.63;;;;;;;-6.49;90.07;94135.75;4840955;29;20167;-59
2021/12/23 00:42:37;;;;;;;54.63;16.48;;;;;;;-6.52;90.08;94127.56;4840502;29;20125;-59
2021/12/23 00:45:05;;;;;;;51.75;15.32;;;;;;;-6.57;90.14;94127.69;4840862;29;20045;-59
2021/12/23 00:47:32;;;;;;;48.97;15.07;;;;;;;-6.69;90.66;94128.22;4841319;29;20159;-60
2021/12/23 00:49:59;;;;;;;53.30;15.98;;;;;;;-6.70;91.41;94126.63;4841017;29;20058;-60
2021/12/23 00:52:33;;;;;;;50.57;15.07;;;;;;;-6.68;91.07;94130.59;4841522;29;20045;-60
2021/12/23 00:55:01;;;;;;;52.30;16.13;;;;;;;-6.71;90.99;94130.41;4840751;29;20070;-60
2021/12/23 00:57:30;;;;;;;53.35;16.80;;;;;;;-6.72;91.19;94137.63;4839904;29;20404;-60
2021/12/23 00:59:58;;;;;;;55.83;16.45;;;;;;;-6.73;90.98;94124.59;4840472;29;20056;-58
2021/12/23 01:02:30;;;;;;;55.42;16.30;;;;;;;-6.66;90.69;94127.59;4841219;29;20061;-61
2021/12/23 01:04:59;;;;;;;66.33;19.57;;;;;;;-6.67;91.30;94126.81;4840764;29;20076;-59
2021/12/23 01:07:26;;;;;;;50.67;15.18;;;;;;;-6.73;91.46;94122.69;4804818;29;20043;-60
2021/12/23 01:09:53;;;;;;;53.03;16.67;;;;;;;-6.73;91.09;94125.38;4804493;29;20077;-61
2021/12/23 01:12:26;;;;;;;54.30;15.60;;;;;;;-6.69;91.30;94130.91;4804147;29;20063;-61
2021/12/23 01:15:12;;;;;;;56.10;16.25;;;;;;;-6.70;91.27;94127.44;4804553;29;20055;-60
2021/12/23 01:17:56;;;;;;;56.63;16.20;;;;;;;-6.70;90.82;94126.63;4803776;29;20897;-60
2021/12/23 01:20:29;;;;;;;52.28;14.77;;;;;;;-6.86;91.89;94134.19;4803971;29;20514;-61
2021/12/23 01:22:59;;;;;;;51.58;15.10;;;;;;;-6.83;91.79;94141.59;4804407;29;20061;-60
2021/12/23 01:25:27;;;;;;;57.20;16.20;;;;;;;-6.93;91.78;94134.59;4803524;29;20074;-60
2021/12/23 01:27:54;;;;;;;53.75;15.35;;;;;;;-6.89;91.63;94140.13;4817884;29;20054;-61
2021/12/23 01:30:22;;;;;;;58.07;16.33;;;;;;;-6.94;91.95;94140.22;4805379;29;20054;-60
2021/12/23 01:32:50;;;;;;;55.92;17.02;;;;;;;-6.93;91.64;94139.94;4854737;29;20308;-60
2021/12/23 01:35:18;;;;;;;53.55;17.10;;;;;;;-7.00;91.39;94136.09;4840157;29;20452;-60
2021/12/23 01:37:45;;;;;;;56.10;16.30;;;;;;;-6.99;91.94;94137.69;4840798;29;20072;-60
2021/12/23 01:40:15;;;;;;;54.50;15.80;;;;;;;-7.08;91.85;94132.28;4839939;29;20058;-60
2021/12/23 01:42:42;;;;;;;65.40;16.33;;;;;;;-7.11;92.71;94133.66;4840717;29;20054;-60
2021/12/23 01:45:18;;;;;;;53.17;14.77;;;;;;;-7.14;92.74;94136.94;4839787;29;20050;-60
2021/12/23 01:47:46;;;;;;;58.20;16.33;;;;;;;-7.03;92.96;94135.59;4840378;29;20054;-60
2021/12/23 01:50:15;;;;;;;53.78;15.77;;;;;;;-7.00;92.60;94139.56;4837723;29;20049;-61
2021/12/23 01:52:43;;;;;;;59.33;16.35;;;;;;;-6.99;92.91;94132.34;4830573;29;20057;-60
2021/12/23 01:55:12;;;;;;;58.10;17.30;;;;;;;-6.97;92.79;94122.19;4804836;29;20043;-61
2021/12/23 01:57:42;;;;;;;62.33;17.05;;;;;;;-6.96;93.09;94127.22;4803729;29;20493;-61
2021/12/23 02:00:13;;;;;;;61.03;16.08;;;;;;;-6.93;92.90;94120.47;4803303;29;20058;-60
2021/12/23 02:02:41;;;;;;;58.75;15.43;;;;;;;-6.91;93.21;94118.31;4803916;29;20066;-61
2021/12/23 02:05:09;;;;;;;64.13;18.40;;;;;;;-6.84;92.90;94119.47;4805397;29;20067;-60
2021/12/23 02:07:37;;;;;;;66.30;17.27;;;;;;;-6.81;93.06;94109.28;4840382;29;20054;-60
2021/12/23 02:10:07;;;;;;;67.15;18.25;;;;;;;-6.70;92.96;94110.63;4839263;29;20050;-60
2021/12/23 02:12:35;;;;;;;72.43;19.38;;;;;;;-6.66;92.65;94106.25;4835112;29;20052;-59
2021/12/23 02:15:03;;;;;;;67.50;19.45;;;;;;;-6.59;92.83;94103.97;4839454;29;20504;-60
2021/12/23 02:17:35;;;;;;;68.57;18.77;;;;;;;-6.63;92.82;94103.00;4840183;29;20056;-61
2021/12/23 02:20:04;;;;;;;74.50;19.03;;;;;;;-6.63;93.32;94105.66;4839608;29;20050;-60
2021/12/23 02:22:31;;;;;;;70.47;18.35;;;;;;;-6.66;93.02;94095.56;4840070;29;20065;-60
2021/12/23 02:24:57;;;;;;;80.13;22.10;;;;;;;-6.68;92.97;94095.09;4839182;29;20148;-59
2021/12/23 02:27:24;;;;;;;72.30;20.45;;;;;;;-6.68;93.08;94092.44;4839919;29;20068;-60
2021/12/23 02:29:51;;;;;;;64.70;18.02;;;;;;;-6.63;92.86;94089.66;4839930;29;20053;-60
2021/12/23 02:32:18;;;;;;;73.43;20.47;;;;;;;-6.61;93.17;94084.00;4839112;29;20511;-60
2021/12/23 02:34:45;;;;;;;69.55;19.02;;;;;;;-6.62;92.95;94085.88;4823636;29;20050;-61
2021/12/23 02:37:13;;;;;;;74.15;20.85;;;;;;;-6.58;92.84;94084.19;4838920;29;20077;-60
2021/12/23 02:39:40;;;;;;;68.60;19.83;;;;;;;-6.57;93.10;94076.97;4839693;29;20054;-61
2021/12/23 02:42:07;;;;;;;66.72;18.08;;;;;;;-6.58;92.54;94073.50;4839001;29;20058;-60
2021/12/23 02:44:34;;;;;;;74.47;19.77;;;;;;;-6.65;93.24;94076.59;4839665;29;20173;-60
2021/12/23 02:47:01;;;;;;;80.20;21.50;;;;;;;-6.60;93.43;94075.69;4838900;29;20054;-60
2021/12/23 02:49:28;;;;;;;60.88;17.50;;;;;;;-6.55;93.38;94072.91;4839546;29;20050;-61
2021/12/23 02:51:55;;;;;;;64.00;15.95;;;;;;;-6.58;93.34;94070.03;4838044;29;20050;-60
2021/12/23 02:54:22;;;;;;;70.70;18.67;;;;;;;-6.57;93.13;94079.66;4804751;29;20928;-59
2021/12/23 02:56:48;;;;;;;74.50;18.40;;;;;;;-6.48;93.43;94070.59;4819313;29;20137;-59
2021/12/23 02:59:15;;;;;;;69.60;18.90;;;;;;;-6.49;93.79;94077.03;4820666;29;20065;-61
2021/12/23 03:01:42;;;;;;;73.82;19.90;;;;;;;-6.42;93.08;94071.25;4820469;29;20057;-60
2021/12/23 03:04:09;;;;;;;70.03;19.85;;;;;;;-6.40;93.45;94065.63;4820743;29;20050;-60
2021/12/23 03:06:36;;;;;;;78.97;20.80;;;;;;;-6.31;93.30;94067.25;4833287;29;20125;-60
2021/12/23 03:09:04;;;;;;;67.47;18.87;;;;;;;-6.28;93.02;94058.63;4838780;29;20058;-60
2021/12/23 03:11:32;;;;;;;70.30;18.25;;;;;;;-6.32;93.38;94065.66;4839403;29;20049;-60
2021/12/23 03:13:59;;;;;;;67.40;19.50;;;;;;;-6.26;93.25;94058.31;4838966;29;20077;-60
2021/12/23 03:16:30;;;;;;;68.75;16.92;;;;;;;-6.26;93.31;94071.66;4839261;29;20046;-60
2021/12/23 03:18:57;;;;;;;74.18;19.73;;;;;;;-6.26;93.49;94069.00;4838500;29;20062;-59
2021/12/23 03:21:24;;;;;;;72.13;19.83;;;;;;;-6.25;93.45;94063.34;4838144;29;20050;-59
2021/12/23 03:23:51;;;;;;;78.63;19.52;;;;;;;-6.21;93.31;94068.09;4839213;29;20102;-59
2021/12/23 03:26:18;;;;;;;83.70;20.77;;;;;;;-6.18;93.15;94049.56;4836964;29;20042;-60
2021/12/23 03:28:45;;;;;;;78.80;19.67;;;;;;;-6.17;93.28;94047.69;4839141;29;20058;-59
2021/12/23 03:31:12;;;;;;;73.22;19.25;;;;;;;-6.16;92.94;94043.91;4837003;29;20046;-60
2021/12/23 03:33:39;;;;;;;82.00;23.47;;;;;;;-6.16;93.09;94039.34;4839143;29;20046;-60
2021/12/23 03:36:06;;;;;;;83.80;23.00;;;;;;;-6.11;92.60;94041.13;4838536;29;20534;-60
2021/12/23 03:38:32;;;;;;;79.60;22.25;;;;;;;-6.03;92.01;94035.81;4837938;29;20050;-60
2021/12/23 03:41:00;;;;;;;72.35;20.90;;;;;;;-6.00;92.01;94031.72;4838059;29;20100;-61
2021/12/23 03:43:28;;;;;;;87.53;22.23;;;;;;;-5.93;91.75;94025.94;4853246;29;20488;-59
2021/12/23 03:45:56;;;;;;;66.57;18.67;;;;;;;-5.99;91.99;94017.28;4839254;29;20046;-59
2021/12/23 03:48:23;;;;;;;71.80;20.15;;;;;;;-6.08;92.07;94019.91;4838285;29;21553;-59
2021/12/23 03:50:51;;;;;;;67.15;19.25;;;;;;;-6.03;91.75;94019.78;4839138;29;20081;-60
2021/12/23 03:53:18;;;;;;;63.80;18.85;;;;;;;-5.92;91.31;94020.25;4838449;29;20444;-60
2021/12/23 03:55:46;;;;;;;67.90;20.13;;;;;;;-5.82;91.65;94011.16;4838954;29;20358;-60
2021/12/23 03:58:12;;;;;;;66.70;18.83;;;;;;;-5.80;90.90;94006.31;4838263;29;20066;-60
2021/12/23 04:00:41;;;;;;;61.00;17.85;;;;;;;-5.88;90.75;94004.41;4839093;29;20072;-60
2021/12/23 04:03:08;;;;;;;70.68;20.95;;;;;;;-5.87;90.73;93995.28;4838056;29;20065;-60
2021/12/23 04:05:35;;;;;;;64.40;18.60;;;;;;;-5.92;90.17;93993.53;4837546;29;20052;-60
2021/12/23 04:08:02;;;;;;;65.03;19.00;;;;;;;-5.91;90.17;93991.66;4838224;29;20046;-60
2021/12/23 04:10:29;;;;;;;67.33;18.03;;;;;;;-6.04;90.29;93983.47;4837510;29;20054;-60
2021/12/23 04:12:56;;;;;;;76.32;19.48;;;;;;;-6.06;90.92;93979.53;4839924;29;20110;-60
2021/12/23 04:15:23;;;;;;;72.55;20.30;;;;;;;-6.05;90.79;93970.44;4839435;29;21693;-60
2021/12/23 04:17:50;;;;;;;67.85;18.05;;;;;;;-6.11;91.13;93966.31;4841286;29;20439;-59
2021/12/23 04:20:20;;;;;;;62.40;17.88;;;;;;;-6.10;90.69;93951.84;4841398;29;20064;-61
2021/12/23 04:22:54;;;;;;;69.20;20.57;;;;;;;-6.08;90.33;93945.09;4842085;29;20456;-59
2021/12/23 04:25:24;;;;;;;61.90;18.90;;;;;;;-6.05;90.15;93944.50;4841013;29;20037;-59
2021/12/23 04:27:54;;;;;;;62.65;18.17;;;;;;;-6.03;89.76;93939.63;4841929;29;20046;-60
2021/12/23 04:30:23;;;;;;;62.90;17.92;;;;;;;-6.12;89.66;93946.81;4841345;29;20042;-60
2021/12/23 04:32:50;;;;;;;68.22;20.08;;;;;;;-6.16;89.29;93943.19;4841709;29;20060;-60
2021/12/23 04:35:17;;;;;;;59.97;18.03;;;;;;;-6.19;89.51;93938.47;4841096;29;20076;-60
2021/12/23 04:37:44;;;;;;;68.10;19.25;;;;;;;-6.17;89.63;93938.19;4841637;29;20046;-60
2021/12/23 04:40:12;;;;;;;63.45;18.50;;;;;;;-6.30;90.26;93931.84;4825697;29;20057;-61
2021/12/23 04:42:39;;;;;;;66.80;17.77;;;;;;;-6.38;90.64;93935.25;4826398;29;20465;-59
2021/12/23 04:45:07;;;;;;;69.18;18.02;;;;;;;-6.33;90.33;93938.59;4822520;29;20054;-60
2021/12/23 04:47:35;;;;;;;67.03;19.30;;;;;;;-6.27;90.60;93931.22;4823098;29;20511;-60
2021/12/23 04:50:04;;;;;;;62.22;16.73;;;;;;;-6.23;90.24;93937.53;4822328;29;20050;-60
2021/12/23 04:52:31;;;;;;;59.58;17.70;;;;;;;-6.20;90.32;93925.44;4823104;29;20054;-61
2021/12/23 04:54:58;;;;;;;67.03;18.80;;;;;;;-6.25;90.44;93924.47;4836619;29;20407;-60
2021/12/23 04:57:25;;;;;;;62.28;17.88;;;;;;;-6.27;90.72;93934.69;4822603;29;20068;-60
2021/12/23 04:59:51;;;;;;;66.30;18.97;;;;;;;-6.33;90.72;93927.13;4823058;29;20054;-62
2021/12/23 05:02:19;;;;;;;68.97;21.02;;;;;;;-6.33;90.46;93927.91;4822153;29;20072;-61
2021/12/23 05:04:50;;;;;;;69.32;22.15;;;;;;;-6.36;90.24;93920.50;4822953;29;20485;-60
2021/12/23 05:07:20;;;;;;;63.50;20.48;;;;;;;-6.38;90.28;93921.91;4839788;29;20061;-60
2021/12/23 05:09:47;;;;;;;62.17;19.00;;;;;;;-6.33;89.66;93919.91;4840960;29;20117;-60
2021/12/23 05:12:14;;;;;;;63.93;17.60;;;;;;;-6.31;89.97;93924.94;4840543;29;20166;-61
2021/12/23 05:14:41;;;;;;;56.95;17.10;;;;;;;-6.40;89.70;93916.88;4841102;29;20042;-60
2021/12/23 05:17:07;;;;;;;61.42;17.42;;;;;;;-6.47;89.69;93919.22;4839783;29;20076;-60
2021/12/23 05:19:34;;;;;;;58.80;17.25;;;;;;;-6.49;89.89;93913.41;4840813;29;20062;-60
2021/12/23 05:22:01;;;;;;;63.08;17.08;;;;;;;-6.47;90.20;93920.00;4840305;29;20054;-58
2021/12/23 05:24:28;;;;;;;64.90;18.93;;;;;;;-6.53;89.66;93921.22;4839786;29;20042;-60
2021/12/23 05:26:55;;;;;;;56.17;17.38;;;;;;;-6.47;89.38;93922.66;4840822;29;20113;-59
2021/12/23 05:29:22;;;;;;;63.55;18.52;;;;;;;-6.49;89.58;93916.06;4839730;29;20377;-59
2021/12/23 05:31:49;;;;;;;59.42;18.35;;;;;;;-6.56;89.39;93924.53;4840559;29;20050;-60
2021/12/23 05:34:15;;;;;;;61.47;17.88;;;;;;;-6.55;89.13;93912.75;4840126;29;20053;-60
2021/12/23 05:36:42;;;;;;;60.13;17.27;;;;;;;-6.52;90.34;93912.13;4840597;29;20102;-60
2021/12/23 05:39:09;;;;;;;62.50;18.20;;;;;;;-6.54;89.71;93911.66;4839775;29;20058;-60
2021/12/23 05:41:37;;;;;;;59.50;17.15;;;;;;;-6.47;89.83;93911.97;4815685;29;20378;-60
2021/12/23 05:44:04;;;;;;;56.85;16.73;;;;;;;-6.49;89.78;93908.84;4808849;29;20416;-59
2021/12/23 05:46:31;;;;;;;51.10;16.95;;;;;;;-6.48;89.92;93899.75;4803875;29;20134;-59
2021/12/23 05:48:58;;;;;;;54.13;16.53;;;;;;;-6.52;89.52;93909.47;4803609;29;20054;-58
2021/12/23 05:51:25;;;;;;;58.28;17.48;;;;;;;-6.63;89.34;93897.47;4803908;29;20060;-60
2021/12/23 05:53:51;;;;;;;56.13;15.77;;;;;;;-6.59;90.16;93901.09;4803883;29;20063;-60
2021/12/23 05:56:19;;;;;;;58.80;16.27;;;;;;;-6.55;89.39;93896.72;4802940;29;20047;-60
2021/12/23 05:58:46;;;;;;;50.85;15.20;;;;;;;-6.53;89.83;93896.41;4817471;29;20532;-60
2021/12/23 06:01:12;;;;;;;53.43;16.33;;;;;;;-6.61;89.84;93894.50;4801800;29;20085;-60
2021/12/23 06:03:41;;;;;;;60.08;18.27;;;;;;;-6.67;88.87;93891.97;4803732;29;20138;-61
2021/12/23 06:06:08;;;;;;;55.60;15.98;;;;;;;-6.68;89.31;93895.75;4820141;29;20046;-59
2021/12/23 06:08:39;;;;;;;52.25;16.15;;;;;;;-6.69;89.23;93885.38;4839971;29;20072;-58
2021/12/23 06:11:06;;;;;;;52.28;16.65;;;;;;;-6.69;89.41;93883.47;4839174;29;20565;-58
2021/12/23 06:13:33;;;;;;;60.00;16.53;;;;;;;-6.67;90.10;93889.28;4839897;29;20056;-59
2021/12/23 06:16:05;;;;;;;56.67;16.50;;;;;;;-6.73;90.09;93885.19;4839478;29;20056;-58
2021/12/23 06:18:32;;;;;;;57.90;16.58;;;;;;;-6.77;90.10;93880.78;4839695;29;20046;-59
2021/12/23 06:20:59;;;;;;;60.33;16.02;;;;;;;-6.75;90.17;93882.03;4839554;29;20045;-58
2021/12/23 06:23:26;;;;;;;57.97;16.58;;;;;;;-6.71;90.30;93885.66;4839362;29;20125;-60
2021/12/23 06:25:53;;;;;;;57.17;17.03;;;;;;;-6.73;90.52;93884.41;4838223;29;20056;-59
2021/12/23 06:28:20;;;;;;;65.60;18.33;;;;;;;-6.65;90.36;93886.31;4839190;29;20503;-60
2021/12/23 06:30:47;;;;;;;64.50;19.40;;;;;;;-6.67;90.44;93881.28;4839587;29;20050;-59
2021/12/23 06:33:14;;;;;;;64.18;19.40;;;;;;;-6.66;90.36;93888.22;4838553;29;20105;-59
2021/12/23 06:35:41;;;;;;;65.85;20.40;;;;;;;-6.65;90.47;93881.75;4839175;29;20081;-59
2021/12/23 06:38:10;;;;;;;61.70;18.60;;;;;;;-6.61;90.70;93881.16;4838814;29;20050;-59
2021/12/23 06:40:39;;;;;;;61.28;19.45;;;;;;;-6.59;91.44;93876.31;4839394;29;20064;-59
2021/12/23 06:43:06;;;;;;;62.72;20.02;;;;;;;-6.56;91.70;93889.81;4838921;29;20499;-59
2021/12/23 06:45:33;;;;;;;58.17;16.45;;;;;;;-6.48;92.07;93890.94;4839197;29;20046;-59
2021/12/23 06:48:00;;;;;;;57.65;17.00;;;;;;;-6.45;92.01;93893.78;4822767;29;20500;-58
2021/12/23 06:50:29;;;;;;;59.07;16.77;;;;;;;-6.37;91.69;93900.25;4838966;29;20050;-59
2021/12/23 06:52:58;;;;;;;60.83;16.95;;;;;;;-6.29;91.27;93904.81;4839388;29;20056;-59
2021/12/23 06:55:25;;;;;;;52.65;15.93;;;;;;;-6.24;90.68;93903.88;4838275;29;20922;-59
2021/12/23 06:57:56;;;;;;;55.38;16.10;;;;;;;-6.23;91.11;93892.13;4839295;29;20409;-59
2021/12/23 07:00:25;;;;;;;56.03;16.92;;;;;;;-6.17;90.50;93898.13;4838083;29;20218;-59
2021/12/23 07:02:53;;;;;;;53.87;15.90;;;;;;;-6.15;90.68;93902.03;4826111;29;20046;-60
2021/12/23 07:05:21;;;;;;;56.85;16.33;;;;;;;-6.08;90.11;93896.22;4812470;29;20064;-60
2021/12/23 07:10:22;;;;;;;58.63;17.85;;;;;;;-6.01;88.84;93891.22;4838523;29;20050;-60
2021/12/23 07:12:49;;;;;;;62.20;17.95;;;;;;;-5.94;89.14;93896.06;4839393;29;20054;-60
2021/12/23 07:15:16;;;;;;;53.17;16.50;;;;;;;-5.93;89.03;93886.97;4838895;29;20046;-60
2021/12/23 07:17:43;;;;;;;59.22;17.85;;;;;;;-5.93;88.96;93892.31;4839283;29;20121;-60
2021/12/23 07:20:10;;;;;;;63.35;18.45;;;;;;;-5.85;89.05;93897.66;4838654;29;20076;-60
2021/12/23 07:22:37;;;;;;;51.95;16.20;;;;;;;-5.77;88.53;93896.13;4839526;29;20050;-61
2021/12/23 07:25:05;;;;;;;48.10;16.25;;;;;;;-5.71;88.57;93894.09;4838633;29;20058;-60
2021/12/23 07:27:31;;;;;;;56.53;17.67;;;;;;;-5.78;88.14;93893.75;4838929;29;20058;-60
2021/12/23 07:29:58;;;;;;;58.55;18.80;;;;;;;-5.80;88.28;93898.63;4838523;29;20080;-59
2021/12/23 07:32:25;;;;;;;62.03;20.77;;;;;;;-5.74;87.93;93895.47;4838512;29;20046;-60
2021/12/23 07:34:52;;;;;;;63.80;20.42;;;;;;;-5.71;87.79;93891.41;4837855;29;20064;-61
2021/12/23 07:37:20;;;;;;;60.22;19.98;;;;;;;-5.64;88.01;93892.50;4838307;29;20046;-60
2021/12/23 07:39:48;;;;;;;62.23;20.07;;;;;;;-5.51;87.21;93885.44;4839152;29;20064;-61
2021/12/23 07:42:29;;;;;;;63.78;20.30;;;;;;;-5.66;87.76;93892.00;4836251;29;20103;-61
2021/12/23 07:44:56;;;;;;;64.28;21.60;;;;;;;-5.58;87.24;93892.34;4838784;29;20279;-61
2021/12/23 07:47:23;;;;;;;60.67;18.23;;;;;;;-5.54;87.57;93890.63;4836888;29;20488;-60
2021/12/23 07:49:50;;;;;;;54.65;16.95;;;;;;;-5.65;87.71;93884.81;4842576;29;20383;-60
2021/12/23 07:52:17;;;;;;;62.23;19.27;;;;;;;-5.68;87.76;93894.22;4841775;29;20058;-61
2021/12/23 07:54:44;;;;;;;62.75;20.55;;;;;;;-5.52;87.53;93899.88;4842341;29;20046;-63
2021/12/23 07:57:10;;;;;;;68.00;23.38;;;;;;;-5.52;87.82;93899.09;4841342;29;20050;-60
2021/12/23 07:59:37;;;;;;;70.07;23.55;;;;;;;-5.38;87.14;93902.41;4842304;29;20049;-60
2021/12/23 08:02:04;;;;;;;73.15;23.73;;;;;;;-5.34;86.68;93906.03;4841745;29;20056;-59
2021/12/23 08:04:33;;;;;;;66.47;22.43;;;;;;;-5.34;87.09;93900.69;4842019;29;20054;-60
2021/12/23 08:07:02;;;;;;;73.07;22.73;;;;;;;-5.31;87.19;93907.28;4841875;29;20062;-59
2021/12/23 08:09:29;;;;;;;64.85;22.10;;;;;;;-5.28;86.90;93896.75;4839146;29;20052;-60
2021/12/23 08:11:59;;;;;;;68.30;22.60;;;;;;;-5.30;87.26;93890.91;4806205;29;20517;-57
2021/12/23 08:14:26;;;;;;;70.57;23.13;;;;;;;-5.25;86.42;93893.44;4822752;29;20110;-61
2021/12/23 08:16:56;;;;;;;67.20;22.53;;;;;;;-5.01;86.25;93884.09;4823089;29;20047;-59
2021/12/23 08:19:23;;;;;;;70.35;24.73;;;;;;;-5.13;85.86;93895.47;4823150;29;20042;-61
2021/12/23 08:21:50;;;;;;;68.15;22.80;;;;;;;-4.75;85.30;93888.63;4837559;29;20046;-60
2021/12/23 08:24:17;;;;;;;63.28;22.17;;;;;;;-4.82;84.46;93897.94;4822826;29;20054;-60
2021/12/23 08:26:50;;;;;;;60.40;20.73;;;;;;;-4.67;83.21;93891.28;4823524;29;20058;-60
2021/12/23 08:29:19;;;;;;;61.63;20.93;;;;;;;-4.67;83.45;93896.66;4822924;29;20505;-61
2021/12/23 08:31:47;;;;;;;63.92;21.35;;;;;;;-4.32;82.64;93887.69;4834258;29;20518;-58
2021/12/23 08:34:14;;;;;;;56.47;20.20;;;;;;;-4.23;82.73;93891.09;4840715;29;20065;-58
2021/12/23 08:36:41;;;;;;;58.40;20.65;;;;;;;-3.96;80.97;93887.19;4841377;29;20057;-58
2021/12/23 08:39:08;;;;;;;59.95;20.73;;;;;;;-3.56;79.65;93896.69;4840955;29;20265;-60
2021/12/23 08:41:39;;;;;;;56.73;19.47;;;;;;;-3.32;77.88;93902.22;4841078;29;20081;-61
2021/12/23 08:44:05;;;;;;;53.80;19.05;;;;;;;-3.25;77.86;93899.00;4841089;29;20046;-60
2021/12/23 08:46:32;;;;;;;60.50;19.67;;;;;;;-2.52;76.29;93886.94;4841393;29;20061;-61
2021/12/23 08:48:59;;;;;;;54.90;20.13;;;;;;;-1.68;72.91;93892.66;4840800;29;20066;-60
2021/12/23 08:51:26;;;;;;;50.00;17.83;;;;;;;-1.26;70.07;93896.97;4840073;29;20052;-61
2021/12/23 08:53:52;;;;;;;51.90;19.13;;;;;;;-2.46;73.61;93891.75;4840084;29;20057;-61
2021/12/23 08:56:19;;;;;;;50.10;19.17;;;;;;;-2.73;75.51;93885.09;4839128;29;20517;-60
2021/12/23 08:58:46;;;;;;;46.85;18.70;;;;;;;-2.10;74.41;93890.22;4841138;29;20054;-61
2021/12/23 09:01:13;;;;;;;44.08;16.65;;;;;;;-2.09;73.49;93885.63;4840847;29;20045;-60
2021/12/23 09:03:40;;;;;;;45.42;17.00;;;;;;;-2.29;74.67;93880.03;4841141;29;20415;-61
2021/12/23 09:06:07;;;;;;;49.20;17.43;;;;;;;-2.53;74.91;93883.47;4840636;29;20078;-60
2021/12/23 09:08:34;;;;;;;50.92;17.23;;;;;;;-2.79;76.58;93886.44;4839669;29;20060;-61
2021/12/23 09:11:01;;;;;;;49.85;18.30;;;;;;;-3.28;77.94;93878.19;4816474;29;20051;-60
2021/12/23 09:13:29;;;;;;;49.17;17.45;;;;;;;-3.25;78.45;93889.03;4814602;29;20050;-60
2021/12/23 09:15:56;;;;;;;47.40;16.52;;;;;;;-3.14;79.38;93894.81;4821411;29;20054;-60
2021/12/23 09:18:23;;;;;;;46.80;16.53;;;;;;;-3.26;79.47;93900.09;4821250;29;20851;-61
2021/12/23 09:20:51;;;;;;;52.50;17.55;;;;;;;-3.39;80.23;93893.13;4822819;29;20050;-60
2021/12/23 09:23:18;;;;;;;49.72;17.60;;;;;;;-3.13;79.43;93904.41;4821748;29;20046;-60
2021/12/23 09:25:47;;;;;;;59.80;18.75;;;;;;;-3.46;80.60;93893.63;4836312;29;20038;-60
2021/12/23 09:28:41;;;;;;;56.55;18.45;;;;;;;-3.29;80.39;93885.44;4821817;29;20058;-60
2021/12/23 09:33:51;;;;;;;52.40;18.10;;;;;;;-3.17;80.53;93889.31;4840625;29;20058;-61
2021/12/23 09:36:17;;;;;;;48.10;17.02;;;;;;;-3.14;80.20;93891.31;4840081;29;20496;-60
2021/12/23 09:38:45;;;;;;;60.30;18.80;;;;;;;-2.99;80.45;93882.66;4840618;29;20056;-60
2021/12/23 09:41:19;;;;;;;52.40;18.40;;;;;;;-3.03;80.28;93887.13;4839952;29;20455;-60
2021/12/23 09:43:48;;;;;;;43.93;17.10;;;;;;;-2.96;80.10;93884.69;4840469;29;20062;-60
2021/12/23 09:46:18;;;;;;;47.50;16.63;;;;;;;-2.66;79.16;93892.59;4839814;29;20058;-60
2021/12/23 09:48:46;;;;;;;47.38;15.65;;;;;;;-2.50;79.15;93884.69;4840239;29;20483;-61
2021/12/23 09:51:17;;;;;;;43.25;15.60;;;;;;;-2.45;78.41;93893.31;4839847;29;20050;-60
2021/12/23 09:53:46;;;;;;;45.17;16.17;;;;;;;-2.21;78.52;93884.50;4840596;29;20068;-61
2021/12/23 09:56:13;;;;;;;41.57;15.50;;;;;;;-2.14;78.12;93881.25;4839594;29;20128;-60
2021/12/23 09:58:40;;;;;;;44.35;16.27;;;;;;;-2.15;78.52;93879.69;4839816;29;20049;-61
2021/12/23 10:01:08;;;;;;;41.63;16.05;;;;;;;-2.21;78.38;93870.28;4839660;29;20052;-60
2021/12/23 10:03:37;;;;;;;44.50;15.77;;;;;;;-2.13;78.41;93864.00;4839846;29;20500;-61
2021/12/23 10:06:04;;;;;;;46.05;17.65;;;;;;;-2.07;78.68;93869.94;4839446;29;20105;-60
2021/12/23 10:08:31;;;;;;;44.50;16.50;;;;;;;-2.35;79.13;93862.53;4839880;29;20073;-61
2021/12/23 10:30:44;;;;;;;50.60;18.98;;;;;;;-2.04;79.63;93853.91;4821348;29;20060;-60
2021/12/23 10:38:42;;;;;;;44.30;16.33;;;;;;;-2.02;79.16;93848.97;4802356;29;20532;-59
2021/12/23 10:41:16;;;;;;;44.47;15.68;;;;;;;-2.11;79.92;93840.25;4802593;29;20055;-61
2021/12/23 10:43:46;;;;;;;48.55;16.50;;;;;;;-2.01;80.29;93836.34;4803080;29;20081;-60
2021/12/23 10:46:21;;;;;;;44.03;15.60;;;;;;;-1.95;80.33;93832.28;4802767;29;20053;-60
2021/12/23 10:51:59;;;;;;;43.97;16.70;;;;;;;-1.62;79.83;93815.97;4802232;29;20305;-61
2021/12/23 11:00:22;;;;;;;45.58;15.57;;;;;;;-1.49;79.77;93803.28;4802631;29;20607;-61
2021/12/23 11:03:10;;;;;;;46.03;16.50;;;;;;;-1.15;78.23;93805.69;4802743;29;20043;-61
2021/12/23 11:05:45;;;;;;;42.08;15.48;;;;;;;-0.88;77.18;93801.44;4810962;29;20813;-61
2021/12/23 11:08:29;;;;;;;43.30;15.55;;;;;;;-1.03;77.10;93789.47;4838929;29;20077;-60
2021/12/23 11:11:29;;;;;;;53.60;19.67;;;;;;;-0.82;77.71;93786.56;4839414;29;20056;-61
2021/12/23 11:41:50;;;;;;;48.95;17.50;;;;;;;-0.86;78.65;93764.16;4842501;29;20046;-60
2021/12/23 11:44:17;;;;;;;48.67;15.47;;;;;;;-1.00;79.44;93759.19;4842341;29;20054;-60
2021/12/23 11:46:55;;;;;;;50.20;17.48;;;;;;;-0.86;79.34;93753.38;4842148;29;20132;-60
2021/12/23 11:49:22;;;;;;;47.05;17.50;;;;;;;-0.63;78.98;93757.00;4842103;29;20057;-60
2021/12/23 11:54:27;;;;;;;49.20;15.25;;;;;;;-0.31;77.72;93756.97;4841861;29;20060;-60
2021/12/23 11:57:03;;;;;;;42.50;15.03;;;;;;;-0.26;77.16;93743.25;4842391;29;20080;-61
2021/12/23 11:59:37;;;;;;;42.78;15.88;;;;;;;-0.17;77.50;93759.22;4841263;29;21418;-61
2021/12/23 12:02:17;;;;;;;45.20;15.15;;;;;;;-0.21;76.85;93744.88;4841868;29;20074;-60
2021/12/23 12:04:45;;;;;;;43.50;15.32;;;;;;;0.22;75.12;93750.41;4842234;29;20065;-60
2021/12/23 12:07:21;;;;;;;40.45;15.27;;;;;;;0.85;72.91;93752.06;4841639;29;20083;-59
2021/12/23 12:10:00;;;;;;;40.53;14.93;;;;;;;0.98;72.04;93746.13;4828806;29;20050;-60
2021/12/23 12:12:29;;;;;;;37.05;14.25;;;;;;;0.97;71.72;93744.56;4815172;29;20046;-60
2021/12/23 12:14:56;;;;;;;42.05;14.30;;;;;;;0.42;73.41;93746.59;4806050;29;20410;-61
2021/12/23 12:17:23;;;;;;;36.60;14.98;;;;;;;0.67;73.61;93754.41;4804851;29;20650;-59
2021/12/23 12:20:01;;;;;;;41.17;15.98;;;;;;;0.62;73.53;93744.66;4818684;29;20059;-60
2021/12/23 12:22:47;;;;;;;43.27;16.80;;;;;;;0.59;73.40;93740.78;4804471;29;21638;-61
2021/12/23 12:25:23;;;;;;;43.13;16.25;;;;;;;0.42;74.43;93729.63;4804647;29;20055;-58
2021/12/23 12:28:13;;;;;;;39.13;15.85;;;;;;;0.37;75.01;93731.47;4804853;29;20051;-59
2021/12/23 12:31:01;;;;;;;47.50;16.38;;;;;;;0.30;75.26;93717.84;4810281;29;20046;-60
2021/12/23 12:33:28;;;;;;;44.85;17.65;;;;;;;0.44;75.15;93717.31;4839998;29;20615;-60
2021/12/23 12:35:58;;;;;;;46.83;16.53;;;;;;;0.34;75.01;93716.00;4841745;29;20050;-61
2021/12/23 12:38:29;;;;;;;45.58;17.10;;;;;;;0.35;74.78;93717.53;4840761;29;20777;-60
2021/12/23 12:41:08;;;;;;;49.30;17.42;;;;;;;0.41;75.13;93711.88;4841569;29;20060;-61